Rufe, OK

2:04 PM CDT on April 25, 2017 (GMT -0500)
MPCLO2 | | Change Station
Active Advisory: Lake Wind Advisory

Elev 488 ft 34.11 °N, 95.08 °W | Updated 2 hours ago

Scattered Clouds
Scattered Clouds
68.0 °F
Feels Like 68.0 °F
N
14.0
Wind Variable Wind from SSE

Today
High -- | Low -- °F
--% Chance of Precip.
Yesterday
High -- | Low -- °F
Precip. -- in
Pressure 29.56 in
Visibility 10.0 miles
Clouds Scattered Clouds 2900 ft
Dew Point 59.0 °F
Humidity 74%
Rainfall in
Snow Depth Not available.
6:37 AM 7:59 PM
Waning Crescent, 1% visible
METAR K4O4 251855Z AUTO 17014G19KT 10SM SCT029 24/16 A2956 RMK AO2
Pressure 29.56 in
Visibility 10.0 miles
Clouds Scattered Clouds 2900 ft
Dew Point 59.0 °F
Humidity 74%
Rainfall in
Snow Depth Not available.
6:37 AM 7:59 PM
Waning Crescent, 1% visible
METAR K4O4 251855Z AUTO 17014G19KT 10SM SCT029 24/16 A2956 RMK AO2

Get Your Daily Forecast Email!

Thanks for signing up!

Be on the lookout for a verification email in your inbox.

You'll start receiving severe weather alerts in your inbox..

×

10-Day Weather Forecast

Almanac

Astronomy

Apr. 25, 2017 Rise Set
Actual Time
Civil Twilight
Nautical Twilight
Astronomical Twilight
Moon
Length of Visible Light
Length of Day
Tomorrow will be .
, % of the Moon is Illuminated

Today's Extremes

State Highs State Lows

Community

WunderPhotos

WunderBlog® & News

Nearby

Air Quality

  Air Quality AQ Index Pollutant
Not available.

Snow Depth

Station Depth Elevation

Earthquake Activity

City Distance Mag. Time & Date
Minimum magnitude displayed is 2.5.

Coastal Water Temperatures

Place Temperature

Stations

Nearby Weather Stations

Station Location Temp. Windchill Dew Point Humidity Wind Precip. Elev Updated Type
                   

Watches & Warnings

Lake Wind Advisory
Issued: 3:58 AM CDT Apr. 25, 2017 – National Weather Service

... Lake Wind Advisory now in effect from 10 am this morning to
midnight CDT tonight...

* event... a tightening pressure gradient across the Southern
Plains will result in increasing southerly wind speeds today.


* Timing... sustained southerly wind speeds of 15 to 20 mph with
gusts nearing 30 mph will commence around 10 am this morning
across portions of northeast Texas. Remaining areas of the
region will see these increasing winds by late morning, with
these conditions persisting this evening into tonight.


* Impact... boaters should exercise caution on area lakes due to
rough chop conditions.

Precautionary/preparedness actions...

A lake Wind Advisory indicates that winds will cause rough chop
on area lakes. Small boats will be especially prone to capsizing.